sensor_id;sensor_type;location;lat;lon;timestamp;temperature;humidity
12223;DHT22;6174;49.058;8.524;2023-03-01T05:01:59;0.20;99.90
12223;DHT22;6174;49.058;8.524;2023-03-01T05:04:26;0.20;99.90
12223;DHT22;6174;49.058;8.524;2023-03-01T05:06:53;0.20;99.90
12223;DHT22;6174;49.058;8.524;2023-03-01T05:09:21;0.20;99.90
12223;DHT22;6174;49.058;8.524;2023-03-01T05:11:48;0.20;99.90
12223;DHT22;6174;49.058;8.524;2023-03-01T05:14:15;0.20;99.90
12223;DHT22;6174;49.058;8.524;2023-03-01T05:16:42;0.10;99.90
12223;DHT22;6174;49.058;8.524;2023-03-01T05:19:10;0.10;99.90
12223;DHT22;6174;49.058;8.524;2023-03-01T05:21:40;0.10;99.90
12223;DHT22;6174;49.058;8.524;2023-03-01T05:24:21;0.10;99.90
12223;DHT22;6174;49.058;8.524;2023-03-01T05:26:48;0.00;99.90
12223;DHT22;6174;49.058;8.524;2023-03-01T05:29:17;0.00;99.90
12223;DHT22;6174;49.058;8.524;2023-03-01T05:31:44;0.00;99.90
12223;DHT22;6174;49.058;8.524;2023-03-01T05:34:12;0.00;99.90
12223;DHT22;6174;49.058;8.524;2023-03-01T05:36:39;0.00;99.90
12223;DHT22;6174;49.058;8.524;2023-03-01T05:39:05;0.00;99.90
12223;DHT22;6174;49.058;8.524;2023-03-01T05:41:32;0.00;99.90
12223;DHT22;6174;49.058;8.524;2023-03-01T05:43:59;0.00;99.90
12223;DHT22;6174;49.058;8.524;2023-03-01T05:46:26;0.00;99.90
12223;DHT22;6174;49.058;8.524;2023-03-01T05:48:52;-0.10;99.90
12223;DHT22;6174;49.058;8.524;2023-03-01T05:51:20;-0.10;99.90
12223;DHT22;6174;49.058;8.524;2023-03-01T05:53:47;0.00;99.90
12223;DHT22;6174;49.058;8.524;2023-03-01T05:56:14;0.00;99.90
12223;DHT22;6174;49.058;8.524;2023-03-01T05:58:41;0.00;99.90
12223;DHT22;6174;49.058;8.524;2023-03-01T06:01:11;0.00;99.90
12223;DHT22;6174;49.058;8.524;2023-03-01T06:03:38;0.00;99.90
12223;DHT22;6174;49.058;8.524;2023-03-01T06:06:05;0.00;99.90
12223;DHT22;6174;49.058;8.524;2023-03-01T06:08:34;0.00;99.90
12223;DHT22;6174;49.058;8.524;2023-03-01T06:11:01;0.00;99.90
12223;DHT22;6174;49.058;8.524;2023-03-01T06:13:28;0.00;99.90
12223;DHT22;6174;49.058;8.524;2023-03-01T06:15:55;0.00;99.90
12223;DHT22;6174;49.058;8.524;2023-03-01T06:18:21;0.00;99.90
12223;DHT22;6174;49.058;8.524;2023-03-01T06:20:52;0.00;99.90
12223;DHT22;6174;49.058;8.524;2023-03-01T06:23:19;0.00;99.90
12223;DHT22;6174;49.058;8.524;2023-03-01T06:25:49;-0.10;99.90
12223;DHT22;6174;49.058;8.524;2023-03-01T06:28:15;-0.10;99.90
12223;DHT22;6174;49.058;8.524;2023-03-01T06:30:42;-0.10;99.90
12223;DHT22;6174;49.058;8.524;2023-03-01T06:33:09;0.00;99.90
12223;DHT22;6174;49.058;8.524;2023-03-01T06:35:36;0.00;99.90
12223;DHT22;6174;49.058;8.524;2023-03-01T06:38:04;0.00;99.90
12223;DHT22;6174;49.058;8.524;2023-03-01T06:40:31;0.00;99.90
12223;DHT22;6174;49.058;8.524;2023-03-01T06:43:02;0.00;99.90
12223;DHT22;6174;49.058;8.524;2023-03-01T06:45:28;0.00;99.90
12223;DHT22;6174;49.058;8.524;2023-03-01T06:48:02;0.00;99.90
12223;DHT22;6174;49.058;8.524;2023-03-01T06:50:29;0.00;99.90
12223;DHT22;6174;49.058;8.524;2023-03-01T06:52:56;0.10;99.90
12223;DHT22;6174;49.058;8.524;2023-03-01T06:55:23;0.10;99.90
12223;DHT22;6174;49.058;8.524;2023-03-01T06:57:54;0.10;99.90
12223;DHT22;6174;49.058;8.524;2023-03-01T07:00:23;0.10;99.90
12223;DHT22;6174;49.058;8.524;2023-03-01T07:02:51;0.20;99.90
12223;DHT22;6174;49.058;8.524;2023-03-01T07:05:17;0.20;99.90
12223;DHT22;6174;49.058;8.524;2023-03-01T07:07:44;0.20;99.90
12223;DHT22;6174;49.058;8.524;2023-03-01T07:10:11;0.20;99.90
12223;DHT22;6174;49.058;8.524;2023-03-01T07:12:38;0.20;99.90
12223;DHT22;6174;49.058;8.524;2023-03-01T07:15:09;0.20;99.90
12223;DHT22;6174;49.058;8.524;2023-03-01T07:17:37;0.20;99.90
12223;DHT22;6174;49.058;8.524;2023-03-01T07:20:04;0.30;99.90
12223;DHT22;6174;49.058;8.524;2023-03-01T07:22:31;0.40;99.90
12223;DHT22;6174;49.058;8.524;2023-03-01T07:24:58;0.40;99.90
12223;DHT22;6174;49.058;8.524;2023-03-01T07:27:25;0.50;99.80
12223;DHT22;6174;49.058;8.524;2023-03-01T07:29:51;0.60;99.60
12223;DHT22;6174;49.058;8.524;2023-03-01T07:32:18;0.60;99.20
12223;DHT22;6174;49.058;8.524;2023-03-01T07:34:46;0.70;99.00
12223;DHT22;6174;49.058;8.524;2023-03-01T07:37:13;0.80;98.90
12223;DHT22;6174;49.058;8.524;2023-03-01T07:39:40;0.90;98.70
12223;DHT22;6174;49.058;8.524;2023-03-01T07:42:07;0.90;98.40
12223;DHT22;6174;49.058;8.524;2023-03-01T07:44:34;0.90;98.70
12223;DHT22;6174;49.058;8.524;2023-03-01T07:47:00;1.00;98.20
12223;DHT22;6174;49.058;8.524;2023-03-01T07:49:27;1.10;98.20
12223;DHT22;6174;49.058;8.524;2023-03-01T07:51:55;1.20;98.00
12223;DHT22;6174;49.058;8.524;2023-03-01T07:54:22;1.40;97.70
12223;DHT22;6174;49.058;8.524;2023-03-01T07:56:49;1.50;97.70
12223;DHT22;6174;49.058;8.524;2023-03-01T07:59:16;1.70;97.10
12223;DHT22;6174;49.058;8.524;2023-03-01T08:01:42;1.90;96.90
12223;DHT22;6174;49.058;8.524;2023-03-01T08:04:09;1.90;96.00
12223;DHT22;6174;49.058;8.524;2023-03-01T08:06:36;2.00;95.60
12223;DHT22;6174;49.058;8.524;2023-03-01T08:09:04;2.10;95.40
12223;DHT22;6174;49.058;8.524;2023-03-01T08:11:31;2.30;95.50
12223;DHT22;6174;49.058;8.524;2023-03-01T08:13:57;2.40;95.20
12223;DHT22;6174;49.058;8.524;2023-03-01T08:16:24;2.40;95.10
12223;DHT22;6174;49.058;8.524;2023-03-01T08:18:51;2.50;95.30
12223;DHT22;6174;49.058;8.524;2023-03-01T08:21:18;2.60;95.50
12223;DHT22;6174;49.058;8.524;2023-03-01T08:23:45;2.60;94.30
12223;DHT22;6174;49.058;8.524;2023-03-01T08:26:15;2.50;94.40
12223;DHT22;6174;49.058;8.524;2023-03-01T08:28:42;2.50;95.00
12223;DHT22;6174;49.058;8.524;2023-03-01T08:31:17;2.60;95.30
12223;DHT22;6174;49.058;8.524;2023-03-01T08:33:44;2.70;94.40
12223;DHT22;6174;49.058;8.524;2023-03-01T08:36:16;2.70;94.20
12223;DHT22;6174;49.058;8.524;2023-03-01T08:38:43;2.80;94.10
12223;DHT22;6174;49.058;8.524;2023-03-01T08:41:09;2.90;93.60
12223;DHT22;6174;49.058;8.524;2023-03-01T08:43:38;3.00;94.00
12223;DHT22;6174;49.058;8.524;2023-03-01T08:46:04;3.10;94.00
12223;DHT22;6174;49.058;8.524;2023-03-01T08:48:31;3.20;93.90
12223;DHT22;6174;49.058;8.524;2023-03-01T08:51:07;3.20;93.30
12223;DHT22;6174;49.058;8.524;2023-03-01T08:53:34;3.30;93.10
12223;DHT22;6174;49.058;8.524;2023-03-01T08:56:00;3.40;93.30
12223;DHT22;6174;49.058;8.524;2023-03-01T08:58:28;3.40;93.00
12223;DHT22;6174;49.058;8.524;2023-03-01T09:00:56;3.50;92.90
12223;DHT22;6174;49.058;8.524;2023-03-01T09:03:24;3.40;92.00
12223;DHT22;6174;49.058;8.524;2023-03-01T09:05:51;3.30;92.30
12223;DHT22;6174;49.058;8.524;2023-03-01T09:08:17;3.30;92.30
12223;DHT22;6174;49.058;8.524;2023-03-01T09:10:44;3.30;92.50
12223;DHT22;6174;49.058;8.524;2023-03-01T09:13:11;3.40;92.70
12223;DHT22;6174;49.058;8.524;2023-03-01T09:15:38;3.50;93.20
12223;DHT22;6174;49.058;8.524;2023-03-01T09:18:06;3.60;92.70
12223;DHT22;6174;49.058;8.524;2023-03-01T09:20:33;3.70;92.60
12223;DHT22;6174;49.058;8.524;2023-03-01T09:23:00;3.80;92.60
12223;DHT22;6174;49.058;8.524;2023-03-01T09:25:27;3.80;92.30
12223;DHT22;6174;49.058;8.524;2023-03-01T09:27:54;3.90;92.60
12223;DHT22;6174;49.058;8.524;2023-03-01T09:30:21;4.00;92.60
12223;DHT22;6174;49.058;8.524;2023-03-01T09:32:49;4.00;91.70
12223;DHT22;6174;49.058;8.524;2023-03-01T09:35:17;4.10;91.60
12223;DHT22;6174;49.058;8.524;2023-03-01T09:37:45;4.10;92.10
12223;DHT22;6174;49.058;8.524;2023-03-01T09:40:15;4.20;92.00
12223;DHT22;6174;49.058;8.524;2023-03-01T09:42:49;4.20;92.00
12223;DHT22;6174;49.058;8.524;2023-03-01T09:45:26;4.30;91.60
12223;DHT22;6174;49.058;8.524;2023-03-01T09:47:54;4.30;91.60
12223;DHT22;6174;49.058;8.524;2023-03-01T09:50:24;4.30;91.30
12223;DHT22;6174;49.058;8.524;2023-03-01T09:52:58;4.40;91.50
12223;DHT22;6174;49.058;8.524;2023-03-01T09:55:31;4.40;91.40
12223;DHT22;6174;49.058;8.524;2023-03-01T09:58:04;4.40;90.80
12223;DHT22;6174;49.058;8.524;2023-03-01T10:00:38;4.50;91.60
12223;DHT22;6174;49.058;8.524;2023-03-01T10:03:14;4.50;91.60
12223;DHT22;6174;49.058;8.524;2023-03-01T10:05:50;4.60;91.60
12223;DHT22;6174;49.058;8.524;2023-03-01T10:08:29;4.70;91.50
12223;DHT22;6174;49.058;8.524;2023-03-01T10:11:02;4.70;91.20
12223;DHT22;6174;49.058;8.524;2023-03-01T10:13:36;4.70;91.10
12223;DHT22;6174;49.058;8.524;2023-03-01T10:16:10;4.80;91.50
12223;DHT22;6174;49.058;8.524;2023-03-01T10:18:39;4.80;91.00
12223;DHT22;6174;49.058;8.524;2023-03-01T10:21:14;4.80;91.00
12223;DHT22;6174;49.058;8.524;2023-03-01T10:23:42;4.90;90.60
12223;DHT22;6174;49.058;8.524;2023-03-01T10:26:20;4.90;91.10
12223;DHT22;6174;49.058;8.524;2023-03-01T10:28:58;5.00;90.80
12223;DHT22;6174;49.058;8.524;2023-03-01T10:31:27;5.10;90.50
12223;DHT22;6174;49.058;8.524;2023-03-01T10:34:02;5.10;90.60
12223;DHT22;6174;49.058;8.524;2023-03-01T10:36:33;5.20;90.40
12223;DHT22;6174;49.058;8.524;2023-03-01T10:39:11;5.20;89.20
12223;DHT22;6174;49.058;8.524;2023-03-01T10:41:51;5.20;90.40
12223;DHT22;6174;49.058;8.524;2023-03-01T10:44:44;5.30;90.50
12223;DHT22;6174;49.058;8.524;2023-03-01T10:47:16;5.30;90.20
12223;DHT22;6174;49.058;8.524;2023-03-01T10:49:57;5.40;90.20
12223;DHT22;6174;49.058;8.524;2023-03-01T10:52:34;5.50;90.30
12223;DHT22;6174;49.058;8.524;2023-03-01T10:55:04;5.60;90.40
12223;DHT22;6174;49.058;8.524;2023-03-01T10:57:46;5.60;89.70
12223;DHT22;6174;49.058;8.524;2023-03-01T11:00:23;5.70;90.20
12223;DHT22;6174;49.058;8.524;2023-03-01T11:03:01;5.90;89.70
12223;DHT22;6174;49.058;8.524;2023-03-01T11:05:29;6.00;89.10
12223;DHT22;6174;49.058;8.524;2023-03-01T11:08:02;6.00;88.70
12223;DHT22;6174;49.058;8.524;2023-03-01T11:10:30;6.00;89.10
12223;DHT22;6174;49.058;8.524;2023-03-01T11:13:08;6.00;88.70
12223;DHT22;6174;49.058;8.524;2023-03-01T11:15:38;6.00;88.10
12223;DHT22;6174;49.058;8.524;2023-03-01T11:18:19;6.10;88.30
12223;DHT22;6174;49.058;8.524;2023-03-01T11:20:48;6.20;87.50
12223;DHT22;6174;49.058;8.524;2023-03-01T11:23:18;6.20;85.80
12223;DHT22;6174;49.058;8.524;2023-03-01T11:25:49;6.20;87.40
12223;DHT22;6174;49.058;8.524;2023-03-01T11:28:26;6.20;87.50
12223;DHT22;6174;49.058;8.524;2023-03-01T11:31:00;6.20;87.60
12223;DHT22;6174;49.058;8.524;2023-03-01T11:33:35;6.30;85.50
12223;DHT22;6174;49.058;8.524;2023-03-01T11:36:11;6.90;86.90
12223;DHT22;6174;49.058;8.524;2023-03-01T11:38:42;6.20;87.00
12223;DHT22;6174;49.058;8.524;2023-03-01T11:41:14;6.40;88.20
12223;DHT22;6174;49.058;8.524;2023-03-01T11:43:49;6.50;88.60
12223;DHT22;6174;49.058;8.524;2023-03-01T11:46:54;6.70;88.00
12223;DHT22;6174;49.058;8.524;2023-03-01T11:52:26;6.60;83.70
12223;DHT22;6174;49.058;8.524;2023-03-01T11:55:13;6.60;85.60
12223;DHT22;6174;49.058;8.524;2023-03-01T11:57:57;6.70;83.50
12223;DHT22;6174;49.058;8.524;2023-03-01T12:00:42;6.70;85.10
12223;DHT22;6174;49.058;8.524;2023-03-01T12:03:30;6.70;84.10
12223;DHT22;6174;49.058;8.524;2023-03-01T12:06:22;6.60;82.70
12223;DHT22;6174;49.058;8.524;2023-03-01T12:09:00;6.70;85.70
12223;DHT22;6174;49.058;8.524;2023-03-01T12:11:49;6.70;83.40
12223;DHT22;6174;49.058;8.524;2023-03-01T12:14:44;6.80;82.60
12223;DHT22;6174;49.058;8.524;2023-03-01T12:17:26;6.70;83.00
12223;DHT22;6174;49.058;8.524;2023-03-01T12:20:06;6.80;84.20
12223;DHT22;6174;49.058;8.524;2023-03-01T12:22:48;6.80;82.90
12223;DHT22;6174;49.058;8.524;2023-03-01T12:25:25;6.90;85.70
12223;DHT22;6174;49.058;8.524;2023-03-01T12:28:10;7.00;83.70
12223;DHT22;6174;49.058;8.524;2023-03-01T12:30:51;7.00;83.40
12223;DHT22;6174;49.058;8.524;2023-03-01T12:33:29;7.10;85.80
12223;DHT22;6174;49.058;8.524;2023-03-01T12:36:16;7.20;84.00
12223;DHT22;6174;49.058;8.524;2023-03-01T12:38:59;7.20;83.80
12223;DHT22;6174;49.058;8.524;2023-03-01T12:44:35;7.30;82.60
12223;DHT22;6174;49.058;8.524;2023-03-01T12:47:15;7.20;82.20
12223;DHT22;6174;49.058;8.524;2023-03-01T12:49:49;7.10;80.90
12223;DHT22;6174;49.058;8.524;2023-03-01T12:52:22;7.20;82.20
12223;DHT22;6174;49.058;8.524;2023-03-01T12:54:51;7.20;81.30
12223;DHT22;6174;49.058;8.524;2023-03-01T12:57:21;7.20;82.00
12223;DHT22;6174;49.058;8.524;2023-03-01T13:00:05;7.20;82.30
12223;DHT22;6174;49.058;8.524;2023-03-01T13:02:39;7.40;83.40
12223;DHT22;6174;49.058;8.524;2023-03-01T13:05:23;7.40;83.70
12223;DHT22;6174;49.058;8.524;2023-03-01T13:07:55;7.50;82.30
12223;DHT22;6174;49.058;8.524;2023-03-01T13:10:28;7.60;81.60
12223;DHT22;6174;49.058;8.524;2023-03-01T13:13:08;7.50;81.80
12223;DHT22;6174;49.058;8.524;2023-03-01T13:15:39;7.60;82.60
12223;DHT22;6174;49.058;8.524;2023-03-01T13:18:30;7.60;82.80
12223;DHT22;6174;49.058;8.524;2023-03-01T13:21:00;7.70;82.60
12223;DHT22;6174;49.058;8.524;2023-03-01T13:23:30;7.70;81.20
12223;DHT22;6174;49.058;8.524;2023-03-01T13:26:18;7.80;80.90
12223;DHT22;6174;49.058;8.524;2023-03-01T13:28:55;7.80;81.30
12223;DHT22;6174;49.058;8.524;2023-03-01T13:32:04;8.60;81.90
12223;DHT22;6174;49.058;8.524;2023-03-01T13:34:46;7.90;82.20
12223;DHT22;6174;49.058;8.524;2023-03-01T13:43:29;7.70;78.20
12223;DHT22;6174;49.058;8.524;2023-03-01T13:45:58;7.80;79.40
12223;DHT22;6174;49.058;8.524;2023-03-01T13:48:28;7.70;80.00
12223;DHT22;6174;49.058;8.524;2023-03-01T13:51:02;7.80;81.50
12223;DHT22;6174;49.058;8.524;2023-03-01T13:53:35;7.90;81.00
12223;DHT22;6174;49.058;8.524;2023-03-01T13:56:09;8.00;80.10
12223;DHT22;6174;49.058;8.524;2023-03-01T13:58:50;7.90;80.40
12223;DHT22;6174;49.058;8.524;2023-03-01T14:01:26;7.90;80.20
12223;DHT22;6174;49.058;8.524;2023-03-01T14:03:53;8.80;80.80
12223;DHT22;6174;49.058;8.524;2023-03-01T14:06:25;7.90;80.70
12223;DHT22;6174;49.058;8.524;2023-03-01T14:09:03;8.00;79.90
12223;DHT22;6174;49.058;8.524;2023-03-01T14:12:01;7.90;79.50
12223;DHT22;6174;49.058;8.524;2023-03-01T14:14:45;7.80;79.30
12223;DHT22;6174;49.058;8.524;2023-03-01T14:17:38;7.80;80.10
12223;DHT22;6174;49.058;8.524;2023-03-01T14:20:12;7.80;80.50
12223;DHT22;6174;49.058;8.524;2023-03-01T14:22:41;7.70;80.40
12223;DHT22;6174;49.058;8.524;2023-03-01T14:25:20;7.70;80.30
12223;DHT22;6174;49.058;8.524;2023-03-01T14:27:52;7.70;79.80
12223;DHT22;6174;49.058;8.524;2023-03-01T14:30:25;7.70;80.80
12223;DHT22;6174;49.058;8.524;2023-03-01T14:32:54;7.70;80.30
12223;DHT22;6174;49.058;8.524;2023-03-01T14:35:23;7.70;79.70
12223;DHT22;6174;49.058;8.524;2023-03-01T14:37:50;7.70;79.90
12223;DHT22;6174;49.058;8.524;2023-03-01T14:40:23;7.80;79.40
12223;DHT22;6174;49.058;8.524;2023-03-01T14:42:51;7.80;79.40
12223;DHT22;6174;49.058;8.524;2023-03-01T14:45:19;8.00;80.60
12223;DHT22;6174;49.058;8.524;2023-03-01T14:47:48;7.80;79.80
12223;DHT22;6174;49.058;8.524;2023-03-01T14:50:22;7.70;79.10
12223;DHT22;6174;49.058;8.524;2023-03-01T14:52:52;7.70;80.10
12223;DHT22;6174;49.058;8.524;2023-03-01T14:55:22;7.80;80.10
12223;DHT22;6174;49.058;8.524;2023-03-01T14:57:54;7.90;80.20
12223;DHT22;6174;49.058;8.524;2023-03-01T15:00:25;8.00;80.90
12223;DHT22;6174;49.058;8.524;2023-03-01T15:02:55;8.00;80.50
12223;DHT22;6174;49.058;8.524;2023-03-01T15:05:27;7.90;79.50
12223;DHT22;6174;49.058;8.524;2023-03-01T15:07:55;7.90;80.40
12223;DHT22;6174;49.058;8.524;2023-03-01T15:10:25;7.80;79.30
12223;DHT22;6174;49.058;8.524;2023-03-01T15:12:52;7.90;80.60
12223;DHT22;6174;49.058;8.524;2023-03-01T15:15:37;7.80;80.20
12223;DHT22;6174;49.058;8.524;2023-03-01T15:18:16;7.80;79.80
12223;DHT22;6174;49.058;8.524;2023-03-01T15:20:43;7.80;79.50
12223;DHT22;6174;49.058;8.524;2023-03-01T15:23:21;7.70;79.10
12223;DHT22;6174;49.058;8.524;2023-03-01T15:25:49;7.80;80.50
12223;DHT22;6174;49.058;8.524;2023-03-01T15:28:22;7.80;80.80
12223;DHT22;6174;49.058;8.524;2023-03-01T15:30:54;7.80;80.00
12223;DHT22;6174;49.058;8.524;2023-03-01T15:33:32;7.80;79.90
12223;DHT22;6174;49.058;8.524;2023-03-01T15:36:00;7.80;79.30
12223;DHT22;6174;49.058;8.524;2023-03-01T15:38:34;7.80;79.00
12223;DHT22;6174;49.058;8.524;2023-03-01T15:41:05;7.80;80.30
12223;DHT22;6174;49.058;8.524;2023-03-01T15:43:42;7.70;79.60
12223;DHT22;6174;49.058;8.524;2023-03-01T15:46:20;7.80;78.80
12223;DHT22;6174;49.058;8.524;2023-03-01T15:48:52;7.80;80.50
12223;DHT22;6174;49.058;8.524;2023-03-01T15:51:26;7.80;80.10
12223;DHT22;6174;49.058;8.524;2023-03-01T15:53:54;7.80;79.70
12223;DHT22;6174;49.058;8.524;2023-03-01T15:56:21;7.70;79.50
12223;DHT22;6174;49.058;8.524;2023-03-01T15:58:48;7.70;79.00
12223;DHT22;6174;49.058;8.524;2023-03-01T16:01:16;7.70;80.00
12223;DHT22;6174;49.058;8.524;2023-03-01T16:03:44;7.60;79.10
12223;DHT22;6174;49.058;8.524;2023-03-01T16:06:12;7.60;79.40
12223;DHT22;6174;49.058;8.524;2023-03-01T16:08:39;7.60;79.20
12223;DHT22;6174;49.058;8.524;2023-03-01T16:11:14;7.60;79.60
12223;DHT22;6174;49.058;8.524;2023-03-01T16:13:40;7.60;80.10
12223;DHT22;6174;49.058;8.524;2023-03-01T16:16:08;7.50;79.80
12223;DHT22;6174;49.058;8.524;2023-03-01T16:18:38;7.50;79.70
12223;DHT22;6174;49.058;8.524;2023-03-01T16:21:05;7.40;79.80
12223;DHT22;6174;49.058;8.524;2023-03-01T16:23:33;7.40;79.60
12223;DHT22;6174;49.058;8.524;2023-03-01T16:26:00;7.30;79.60
12223;DHT22;6174;49.058;8.524;2023-03-01T16:28:27;7.30;80.00
12223;DHT22;6174;49.058;8.524;2023-03-01T16:30:53;7.20;80.80
12223;DHT22;6174;49.058;8.524;2023-03-01T16:33:20;7.30;80.60
12223;DHT22;6174;49.058;8.524;2023-03-01T16:35:47;7.20;80.10
12223;DHT22;6174;49.058;8.524;2023-03-01T16:38:14;7.20;80.90
12223;DHT22;6174;49.058;8.524;2023-03-01T16:40:47;7.10;81.40
12223;DHT22;6174;49.058;8.524;2023-03-01T16:43:14;7.00;81.60
12223;DHT22;6174;49.058;8.524;2023-03-01T16:45:41;7.00;81.70
12223;DHT22;6174;49.058;8.524;2023-03-01T16:48:10;6.90;81.90
12223;DHT22;6174;49.058;8.524;2023-03-01T16:50:37;6.90;82.20
12223;DHT22;6174;49.058;8.524;2023-03-01T16:53:04;6.80;82.60
12223;DHT22;6174;49.058;8.524;2023-03-01T16:55:31;6.80;82.90
12223;DHT22;6174;49.058;8.524;2023-03-01T16:58:00;6.70;83.10
12223;DHT22;6174;49.058;8.524;2023-03-01T17:00:27;6.70;82.90
12223;DHT22;6174;49.058;8.524;2023-03-01T17:02:54;6.60;82.80
12223;DHT22;6174;49.058;8.524;2023-03-01T17:05:21;6.60;83.20
12223;DHT22;6174;49.058;8.524;2023-03-01T17:07:49;6.60;83.00
12223;DHT22;6174;49.058;8.524;2023-03-01T17:10:16;6.50;83.00
12223;DHT22;6174;49.058;8.524;2023-03-01T17:12:43;6.50;83.20
12223;DHT22;6174;49.058;8.524;2023-03-01T17:15:11;6.40;83.30
12223;DHT22;6174;49.058;8.524;2023-03-01T17:17:38;6.40;83.70
12223;DHT22;6174;49.058;8.524;2023-03-01T17:20:05;6.30;83.50
12223;DHT22;6174;49.058;8.524;2023-03-01T17:22:33;6.30;83.80
12223;DHT22;6174;49.058;8.524;2023-03-01T17:24:59;6.20;83.80
12223;DHT22;6174;49.058;8.524;2023-03-01T17:27:26;6.20;83.70
12223;DHT22;6174;49.058;8.524;2023-03-01T17:29:53;6.10;84.00
12223;DHT22;6174;49.058;8.524;2023-03-01T17:32:22;6.10;84.60
12223;DHT22;6174;49.058;8.524;2023-03-01T17:34:49;6.00;84.80
12223;DHT22;6174;49.058;8.524;2023-03-01T17:37:15;6.00;84.90
12223;DHT22;6174;49.058;8.524;2023-03-01T17:39:42;5.90;84.90
12223;DHT22;6174;49.058;8.524;2023-03-01T17:42:09;5.90;84.70
12223;DHT22;6174;49.058;8.524;2023-03-01T17:44:35;5.80;84.90
12223;DHT22;6174;49.058;8.524;2023-03-01T17:47:02;5.80;84.70
12223;DHT22;6174;49.058;8.524;2023-03-01T17:49:31;5.80;84.90
12223;DHT22;6174;49.058;8.524;2023-03-01T17:51:58;5.80;84.80
12223;DHT22;6174;49.058;8.524;2023-03-01T17:54:25;5.80;85.20
12223;DHT22;6174;49.058;8.524;2023-03-01T17:56:52;5.70;85.50
12223;DHT22;6174;49.058;8.524;2023-03-01T17:59:20;5.70;85.50
12223;DHT22;6174;49.058;8.524;2023-03-01T18:01:47;5.60;86.10
12223;DHT22;6174;49.058;8.524;2023-03-01T18:04:13;5.50;86.10
12223;DHT22;6174;49.058;8.524;2023-03-01T18:06:41;5.50;86.90
12223;DHT22;6174;49.058;8.524;2023-03-01T18:09:08;5.40;86.90
12223;DHT22;6174;49.058;8.524;2023-03-01T18:11:36;5.30;87.60
12223;DHT22;6174;49.058;8.524;2023-03-01T18:14:03;5.20;87.60
12223;DHT22;6174;49.058;8.524;2023-03-01T18:16:30;5.20;88.00
12223;DHT22;6174;49.058;8.524;2023-03-01T18:18:58;5.10;88.00
12223;DHT22;6174;49.058;8.524;2023-03-01T18:21:25;5.10;88.60
12223;DHT22;6174;49.058;8.524;2023-03-01T18:23:54;5.00;88.40
12223;DHT22;6174;49.058;8.524;2023-03-01T18:26:21;5.00;88.70
12223;DHT22;6174;49.058;8.524;2023-03-01T18:28:50;4.90;88.80
12223;DHT22;6174;49.058;8.524;2023-03-01T18:31:19;4.90;88.80
12223;DHT22;6174;49.058;8.524;2023-03-01T18:33:47;4.80;89.10
12223;DHT22;6174;49.058;8.524;2023-03-01T18:36:17;4.70;89.30
12223;DHT22;6174;49.058;8.524;2023-03-01T18:38:45;4.60;89.80
12223;DHT22;6174;49.058;8.524;2023-03-01T18:41:13;4.60;90.10
12223;DHT22;6174;49.058;8.524;2023-03-01T18:43:40;4.60;90.20
12223;DHT22;6174;49.058;8.524;2023-03-01T18:46:07;4.50;90.40
12223;DHT22;6174;49.058;8.524;2023-03-01T18:48:33;4.50;90.50
12223;DHT22;6174;49.058;8.524;2023-03-01T18:51:12;4.40;90.40
12223;DHT22;6174;49.058;8.524;2023-03-01T18:53:39;4.30;90.60
12223;DHT22;6174;49.058;8.524;2023-03-01T18:56:06;4.20;90.90
12223;DHT22;6174;49.058;8.524;2023-03-01T18:58:34;4.20;91.10
12223;DHT22;6174;49.058;8.524;2023-03-01T19:01:02;4.10;91.60
12223;DHT22;6174;49.058;8.524;2023-03-01T19:03:32;4.00;91.30
12223;DHT22;6174;49.058;8.524;2023-03-01T19:05:59;4.00;91.60
12223;DHT22;6174;49.058;8.524;2023-03-01T19:08:26;3.90;91.70
12223;DHT22;6174;49.058;8.524;2023-03-01T19:10:57;3.90;91.80
12223;DHT22;6174;49.058;8.524;2023-03-01T19:13:25;3.80;91.70
12223;DHT22;6174;49.058;8.524;2023-03-01T19:16:01;3.70;92.00
12223;DHT22;6174;49.058;8.524;2023-03-01T19:18:39;3.70;92.20
12223;DHT22;6174;49.058;8.524;2023-03-01T19:21:07;3.70;92.50
12223;DHT22;6174;49.058;8.524;2023-03-01T19:23:34;3.60;92.50
12223;DHT22;6174;49.058;8.524;2023-03-01T19:26:05;3.60;92.50
12223;DHT22;6174;49.058;8.524;2023-03-01T19:28:33;3.60;92.60
12223;DHT22;6174;49.058;8.524;2023-03-01T19:31:03;3.50;92.60
12223;DHT22;6174;49.058;8.524;2023-03-01T19:33:31;3.50;92.70
12223;DHT22;6174;49.058;8.524;2023-03-01T19:35:59;3.50;92.80
12223;DHT22;6174;49.058;8.524;2023-03-01T19:38:26;3.50;92.90
12223;DHT22;6174;49.058;8.524;2023-03-01T19:40:54;3.40;93.10
12223;DHT22;6174;49.058;8.524;2023-03-01T19:43:21;3.40;93.20
12223;DHT22;6174;49.058;8.524;2023-03-01T19:45:50;3.40;93.20
12223;DHT22;6174;49.058;8.524;2023-03-01T19:48:18;3.40;93.20
12223;DHT22;6174;49.058;8.524;2023-03-01T19:50:45;3.30;93.20
12223;DHT22;6174;49.058;8.524;2023-03-01T19:53:13;3.30;93.50
12223;DHT22;6174;49.058;8.524;2023-03-01T19:55:40;3.30;93.60
12223;DHT22;6174;49.058;8.524;2023-03-01T19:58:08;3.30;93.50
12223;DHT22;6174;49.058;8.524;2023-03-01T20:00:36;3.30;93.50
12223;DHT22;6174;49.058;8.524;2023-03-01T20:03:03;3.30;93.80
12223;DHT22;6174;49.058;8.524;2023-03-01T20:05:33;3.30;93.80
12223;DHT22;6174;49.058;8.524;2023-03-01T20:08:00;3.30;94.00
12223;DHT22;6174;49.058;8.524;2023-03-01T20:10:28;3.30;94.20
12223;DHT22;6174;49.058;8.524;2023-03-01T20:12:55;3.20;94.40
12223;DHT22;6174;49.058;8.524;2023-03-01T20:15:22;3.10;94.50
12223;DHT22;6174;49.058;8.524;2023-03-01T20:17:49;3.10;95.00
12223;DHT22;6174;49.058;8.524;2023-03-01T20:20:16;3.00;94.80
12223;DHT22;6174;49.058;8.524;2023-03-01T20:22:44;3.00;95.00
12223;DHT22;6174;49.058;8.524;2023-03-01T20:25:11;3.00;95.00
12223;DHT22;6174;49.058;8.524;2023-03-01T20:27:37;3.00;95.10
12223;DHT22;6174;49.058;8.524;2023-03-01T20:30:06;3.00;95.40
12223;DHT22;6174;49.058;8.524;2023-03-01T20:32:36;3.00;94.90
12223;DHT22;6174;49.058;8.524;2023-03-01T20:35:03;3.10;95.00
12223;DHT22;6174;49.058;8.524;2023-03-01T20:37:30;3.10;94.90
12223;DHT22;6174;49.058;8.524;2023-03-01T20:39:58;3.10;95.10
12223;DHT22;6174;49.058;8.524;2023-03-01T20:42:25;3.10;95.10
12223;DHT22;6174;49.058;8.524;2023-03-01T20:44:51;3.10;94.80
12223;DHT22;6174;49.058;8.524;2023-03-01T20:47:18;3.10;94.90
12223;DHT22;6174;49.058;8.524;2023-03-01T20:49:49;3.10;94.90
12223;DHT22;6174;49.058;8.524;2023-03-01T20:52:16;3.10;95.00
12223;DHT22;6174;49.058;8.524;2023-03-01T20:54:43;3.00;95.00
12223;DHT22;6174;49.058;8.524;2023-03-01T20:57:11;2.90;94.80
12223;DHT22;6174;49.058;8.524;2023-03-01T20:59:37;2.80;94.90
12223;DHT22;6174;49.058;8.524;2023-03-01T21:02:04;2.70;95.10
12223;DHT22;6174;49.058;8.524;2023-03-01T21:04:31;2.70;95.20
12223;DHT22;6174;49.058;8.524;2023-03-01T21:06:58;2.60;95.40
12223;DHT22;6174;49.058;8.524;2023-03-01T21:09:24;2.50;95.40
12223;DHT22;6174;49.058;8.524;2023-03-01T21:11:51;2.40;95.70
12223;DHT22;6174;49.058;8.524;2023-03-01T21:14:19;2.40;96.00
12223;DHT22;6174;49.058;8.524;2023-03-01T21:16:46;2.30;96.40
12223;DHT22;6174;49.058;8.524;2023-03-01T21:19:13;2.30;96.60
12223;DHT22;6174;49.058;8.524;2023-03-01T21:21:40;2.30;96.70
12223;DHT22;6174;49.058;8.524;2023-03-01T21:24:07;2.30;96.90
12223;DHT22;6174;49.058;8.524;2023-03-01T21:26:36;2.30;97.10
12223;DHT22;6174;49.058;8.524;2023-03-01T21:29:03;2.30;97.50
12223;DHT22;6174;49.058;8.524;2023-03-01T21:31:33;2.40;97.60
12223;DHT22;6174;49.058;8.524;2023-03-01T21:34:02;2.40;97.60
12223;DHT22;6174;49.058;8.524;2023-03-01T21:36:30;2.40;97.60